createdAt,value
2017-08-24T01:43:45.032Z,14.75
2017-08-24T01:44:44.827Z,14.72
2017-08-24T01:45:44.718Z,14.72
2017-08-24T01:46:44.710Z,14.69
2017-08-24T01:47:44.702Z,14.65
2017-08-24T01:48:44.703Z,14.75
2017-08-24T01:49:44.689Z,14.78
2017-08-24T01:50:44.982Z,14.68
2017-08-24T01:51:44.677Z,14.73
2017-08-24T01:52:44.669Z,14.72
2017-08-24T01:53:44.663Z,14.69
2017-08-24T01:54:44.654Z,14.68
2017-08-24T01:55:44.651Z,14.68
2017-08-24T01:56:44.741Z,14.65
2017-08-24T01:57:44.633Z,14.62
2017-08-24T01:58:44.628Z,14.65
2017-08-24T01:59:44.621Z,14.70
2017-08-24T02:00:44.614Z,14.68
2017-08-24T02:01:44.606Z,14.62
2017-08-24T02:02:44.703Z,14.55
2017-08-24T02:03:44.593Z,14.65
2017-08-24T02:04:44.589Z,14.60
2017-08-24T02:05:44.599Z,14.65
2017-08-24T02:06:44.574Z,14.64
2017-08-24T02:07:44.568Z,14.58
2017-08-24T02:08:44.662Z,14.65
2017-08-24T02:09:44.564Z,14.60
2017-08-24T02:10:44.546Z,14.70
2017-08-24T02:11:44.539Z,14.54
2017-08-24T02:12:44.532Z,14.61
2017-08-24T02:13:44.528Z,14.61
2017-08-24T02:14:44.769Z,14.64
2017-08-24T02:15:44.511Z,14.57
2017-08-24T02:16:44.507Z,14.68
2017-08-24T02:17:44.498Z,14.68
2017-08-24T02:18:44.493Z,14.61
2017-08-24T02:19:44.484Z,14.61
2017-08-24T02:20:44.580Z,14.64
2017-08-24T02:21:44.472Z,14.60
2017-08-24T02:22:44.466Z,14.58
2017-08-24T02:23:44.459Z,14.55
2017-08-24T02:24:44.449Z,14.58
2017-08-24T02:25:44.444Z,14.64
2017-08-24T02:26:44.538Z,14.55
2017-08-24T02:27:44.428Z,14.58
2017-08-24T02:28:44.424Z,14.61
2017-08-24T02:29:44.414Z,14.62
2017-08-24T02:30:44.413Z,14.57
2017-08-24T02:31:44.401Z,14.52
2017-08-24T02:32:44.495Z,14.58
2017-08-24T02:33:44.388Z,14.60
2017-08-24T02:34:44.479Z,14.60
2017-08-24T02:35:44.375Z,14.51
2017-08-24T02:36:44.367Z,14.57
2017-08-24T02:37:44.360Z,14.57
2017-08-24T02:38:44.354Z,14.57
2017-08-24T02:39:44.446Z,14.47
2017-08-24T02:40:44.340Z,14.47
2017-08-24T02:41:44.332Z,14.45
2017-08-24T02:42:44.422Z,14.51
2017-08-24T02:43:44.319Z,14.50
2017-08-24T02:44:44.309Z,14.51
2017-08-24T02:45:44.302Z,14.52
2017-08-24T02:46:44.397Z,14.46
2017-08-24T02:47:44.287Z,14.55
2017-08-24T02:48:44.385Z,14.46
2017-08-24T02:49:44.276Z,14.45
2017-08-24T02:50:44.266Z,14.51
2017-08-24T02:51:44.260Z,14.47
2017-08-24T02:52:44.262Z,14.43
2017-08-24T02:53:44.248Z,14.40
2017-08-24T02:54:44.492Z,14.46
2017-08-24T02:55:44.334Z,14.42
2017-08-24T02:56:44.226Z,14.42
2017-08-24T02:57:44.220Z,14.37
2017-08-24T02:58:44.213Z,14.37
2017-08-24T02:59:44.205Z,14.40
2017-08-24T03:00:44.299Z,14.43
2017-08-24T03:01:44.194Z,14.39
2017-08-24T03:02:44.184Z,14.33
2017-08-24T03:03:44.177Z,14.35
2017-08-24T03:04:44.168Z,14.39
2017-08-24T03:05:44.161Z,14.42
2017-08-24T03:06:44.255Z,14.32
2017-08-24T03:07:44.149Z,14.40
2017-08-24T03:08:44.242Z,14.32
2017-08-24T03:09:44.133Z,14.36
2017-08-24T03:10:44.128Z,14.36
2017-08-24T03:11:44.121Z,14.37
2017-08-24T03:12:44.215Z,14.35
2017-08-24T03:13:44.107Z,14.35
2017-08-24T03:14:44.103Z,14.29
2017-08-24T03:15:44.090Z,14.36
2017-08-24T03:16:44.084Z,14.33
2017-08-24T03:17:44.081Z,14.27
2017-08-24T03:18:44.170Z,14.29
2017-08-24T03:19:44.062Z,14.36
2017-08-24T03:20:44.057Z,14.29
2017-08-24T03:21:44.046Z,14.37
2017-08-24T03:22:44.042Z,14.28
2017-08-24T03:23:44.032Z,14.25
2017-08-24T03:24:44.276Z,14.28
2017-08-24T03:25:44.020Z,14.33
2017-08-24T03:26:44.013Z,14.29
2017-08-24T03:27:44.004Z,14.32
2017-08-24T03:28:43.999Z,14.21
2017-08-24T03:29:43.989Z,14.25
2017-08-24T03:30:44.233Z,14.33
2017-08-24T03:31:43.974Z,14.29
2017-08-24T03:32:43.969Z,14.28
2017-08-24T03:33:43.961Z,14.27
2017-08-24T03:34:43.955Z,14.24
2017-08-24T03:35:43.948Z,14.24
2017-08-24T03:36:44.040Z,14.25
2017-08-24T03:37:43.931Z,14.24
2017-08-24T03:38:43.925Z,14.21
2017-08-24T03:39:43.918Z,14.27
2017-08-24T03:40:43.911Z,14.21
2017-08-24T03:41:43.905Z,14.17
2017-08-24T03:42:44.198Z,14.15
2017-08-24T03:43:43.889Z,14.24
2017-08-24T03:44:43.883Z,14.20
2017-08-24T03:45:43.875Z,14.09
2017-08-24T03:46:43.868Z,14.15
2017-08-24T03:47:43.938Z,14.17
2017-08-24T03:48:44.132Z,14.12
2017-08-24T03:49:43.847Z,14.18
2017-08-24T03:50:43.840Z,14.17
2017-08-24T03:51:43.831Z,14.12
2017-08-24T03:52:43.825Z,14.09
2017-08-24T03:53:43.818Z,14.20
2017-08-24T03:54:43.912Z,14.12
2017-08-24T03:55:43.804Z,14.10
2017-08-24T03:56:44.007Z,14.10
2017-08-24T03:57:43.788Z,14.09
2017-08-24T03:58:43.784Z,14.06
2017-08-24T03:59:43.776Z,14.15
2017-08-24T04:00:43.769Z,14.12
2017-08-24T04:01:43.860Z,14.21
2017-08-24T04:02:43.751Z,14.14
2017-08-24T04:03:43.745Z,14.00
2017-08-24T04:04:43.737Z,14.20
2017-08-24T04:05:43.730Z,14.17
2017-08-24T04:06:43.722Z,14.03
2017-08-24T04:07:43.816Z,14.14
2017-08-24T04:08:43.711Z,14.14
2017-08-24T04:09:43.702Z,14.03
2017-08-24T04:10:43.694Z,14.09
2017-08-24T04:11:43.686Z,14.10
2017-08-24T04:12:43.682Z,14.10
2017-08-24T04:13:43.771Z,14.06
2017-08-24T04:14:43.666Z,14.17
2017-08-24T04:15:43.757Z,14.06
2017-08-24T04:16:43.652Z,14.15
2017-08-24T04:17:43.642Z,14.03
2017-08-24T04:18:43.637Z,14.14
2017-08-24T04:19:43.730Z,14.03
2017-08-24T04:20:43.624Z,14.04
2017-08-24T04:21:43.614Z,14.02
2017-08-24T04:22:43.708Z,14.03
2017-08-24T04:23:43.602Z,14.06
2017-08-24T04:24:43.597Z,14.03
2017-08-24T04:25:43.683Z,13.99
2017-08-24T04:26:43.622Z,14.04
2017-08-24T04:27:43.570Z,13.96
2017-08-24T04:28:43.562Z,14.02
2017-08-24T04:29:43.552Z,14.03
2017-08-24T04:30:43.545Z,14.06
2017-08-24T04:31:43.638Z,14.06
2017-08-24T04:32:43.540Z,14.02
2017-08-24T04:33:43.522Z,14.09
2017-08-24T04:34:43.578Z,14.07
2017-08-24T04:35:43.508Z,14.07
2017-08-24T04:36:43.500Z,14.06
2017-08-24T04:37:43.593Z,14.03
2017-08-24T04:38:43.486Z,14.02
2017-08-24T04:39:43.580Z,14.06
2017-08-24T04:40:43.471Z,14.07
2017-08-24T04:41:43.537Z,14.10
2017-08-24T04:42:43.457Z,14.02
2017-08-24T04:43:43.449Z,14.03
2017-08-24T04:44:43.693Z,14.04
2017-08-24T04:45:43.433Z,14.10
2017-08-24T04:46:43.426Z,14.00
2017-08-24T04:47:43.419Z,14.00
2017-08-24T04:48:43.411Z,14.04
2017-08-24T04:49:43.403Z,14.04
2017-08-24T04:50:43.697Z,14.09
2017-08-24T04:51:43.390Z,14.02
2017-08-24T04:52:43.380Z,14.15
2017-08-24T04:53:43.372Z,14.04
2017-08-24T04:54:43.368Z,14.17
2017-08-24T04:55:43.357Z,14.18
2017-08-24T04:56:43.600Z,14.12
2017-08-24T04:57:43.344Z,14.21
2017-08-24T04:58:43.335Z,14.07
2017-08-24T04:59:43.411Z,14.17
2017-08-24T05:00:43.322Z,14.17
2017-08-24T05:01:43.313Z,14.17
2017-08-24T05:02:43.404Z,14.17
2017-08-24T05:03:43.299Z,14.10
2017-08-24T05:04:43.295Z,14.17
2017-08-24T05:05:43.284Z,14.20
2017-08-24T05:06:43.377Z,14.17
2017-08-24T05:07:43.269Z,14.21
2017-08-24T05:08:43.362Z,14.22
2017-08-24T05:09:43.255Z,14.25
2017-08-24T05:10:43.247Z,14.27
2017-08-24T05:11:43.239Z,14.27
2017-08-24T05:12:43.230Z,14.29
2017-08-24T05:13:43.228Z,14.28
2017-08-24T05:14:43.317Z,14.33
2017-08-24T05:15:43.210Z,14.32
2017-08-24T05:16:43.200Z,14.33
2017-08-24T05:17:43.193Z,14.39
2017-08-24T05:18:43.185Z,14.32
2017-08-24T05:19:43.178Z,14.35
2017-08-24T05:20:43.271Z,14.37
2017-08-24T05:21:43.163Z,14.43
2017-08-24T05:22:43.159Z,14.46
2017-08-24T05:23:43.149Z,14.47
2017-08-24T05:24:43.141Z,14.43
2017-08-24T05:25:43.134Z,14.46
2017-08-24T05:26:43.227Z,14.42
2017-08-24T05:27:43.119Z,14.50
2017-08-24T05:28:43.114Z,14.52
2017-08-24T05:29:43.105Z,14.50
2017-08-24T05:30:43.099Z,14.51
2017-08-24T05:31:43.098Z,14.54
2017-08-24T05:32:43.184Z,14.64
2017-08-24T05:33:43.080Z,14.55
2017-08-24T05:34:43.070Z,14.64
2017-08-24T05:35:43.062Z,14.88
2017-08-24T05:36:43.054Z,15.01
2017-08-24T05:37:43.048Z,15.16
2017-08-24T05:38:43.141Z,15.21
2017-08-24T05:39:43.033Z,15.44
2017-08-24T05:40:43.029Z,15.54
2017-08-24T05:41:43.020Z,15.80
2017-08-24T05:42:43.014Z,15.83
2017-08-24T05:43:43.008Z,15.97
2017-08-24T05:44:43.101Z,16.12
2017-08-24T05:45:42.993Z,16.24
2017-08-24T05:46:42.986Z,16.39
2017-08-24T05:47:42.980Z,16.46
2017-08-24T05:48:42.997Z,16.52
2017-08-24T05:49:42.966Z,16.63
2017-08-24T05:50:43.061Z,16.58
2017-08-24T05:51:42.955Z,16.78
2017-08-24T05:52:42.956Z,16.83
2017-08-24T05:53:42.941Z,16.91
2017-08-24T05:54:42.934Z,16.97
2017-08-24T05:55:42.936Z,17.04
2017-08-24T05:56:43.024Z,17.19
2017-08-24T05:57:42.919Z,17.25
2017-08-24T05:58:42.911Z,17.44
2017-08-24T05:59:42.905Z,17.55
2017-08-24T06:00:42.927Z,17.52
2017-08-24T06:01:42.896Z,17.74
2017-08-24T06:02:42.988Z,17.82
2017-08-24T06:03:42.882Z,17.99
2017-08-24T06:04:42.878Z,18.00
2017-08-24T06:05:42.874Z,18.02
2017-08-24T06:06:42.866Z,18.05
2017-08-24T06:07:42.863Z,17.97
2017-08-24T06:08:42.956Z,17.99
2017-08-24T06:09:42.851Z,17.99
2017-08-24T06:10:42.846Z,17.96
2017-08-24T06:11:42.844Z,18.03
2017-08-24T06:12:42.835Z,18.10
2017-08-24T06:13:42.830Z,18.35
2017-08-24T06:14:42.925Z,18.41
2017-08-24T06:15:42.823Z,18.44
2017-08-24T06:16:42.816Z,18.35
2017-08-24T06:17:42.836Z,18.44
2017-08-24T06:18:42.809Z,18.52
2017-08-24T06:19:42.804Z,18.70
2017-08-24T06:20:42.899Z,18.90
2017-08-24T06:21:42.797Z,19.07
2017-08-24T06:22:42.793Z,19.29
2017-08-24T06:23:42.785Z,19.22
2017-08-24T06:24:42.781Z,19.22
2017-08-24T06:25:42.776Z,19.29
2017-08-24T06:26:42.873Z,19.22
2017-08-24T06:27:42.766Z,19.23
2017-08-24T06:28:42.763Z,19.41
2017-08-24T06:29:42.858Z,19.71
2017-08-24T06:30:42.754Z,19.99
2017-08-24T06:31:42.752Z,20.42
2017-08-24T06:32:42.845Z,20.97
2017-08-24T06:33:42.740Z,21.40
2017-08-24T06:34:42.736Z,22.07
2017-08-24T06:35:42.734Z,22.61
2017-08-24T06:36:42.733Z,23.28
2017-08-24T06:37:42.727Z,24.06
2017-08-24T06:38:42.823Z,24.69
2017-08-24T06:39:42.719Z,25.65
2017-08-24T06:40:42.716Z,26.29
2017-08-24T06:41:42.714Z,26.55
2017-08-24T06:42:42.712Z,26.95
2017-08-24T06:43:42.707Z,27.34
2017-08-24T06:44:42.806Z,27.78
2017-08-24T06:45:42.804Z,28.17
2017-08-24T06:46:42.703Z,28.64
2017-08-24T06:47:42.703Z,29.12
2017-08-24T06:48:42.704Z,29.63
2017-08-24T06:49:42.703Z,29.94
2017-08-24T06:50:42.804Z,30.31
2017-08-24T06:51:42.707Z,30.23
2017-08-24T06:52:42.710Z,29.90
2017-08-24T06:53:42.712Z,29.37
2017-08-24T06:54:42.717Z,28.98
2017-08-24T06:55:42.718Z,28.58
2017-08-24T06:56:42.826Z,28.15
2017-08-24T06:57:42.730Z,27.82
2017-08-24T06:58:42.734Z,27.28
2017-08-24T06:59:42.744Z,26.94
2017-08-24T07:00:42.749Z,26.37
2017-08-24T07:01:42.755Z,25.95
2017-08-24T07:02:42.863Z,25.23
2017-08-24T07:03:42.773Z,24.83
2017-08-24T07:04:42.782Z,24.76
2017-08-24T07:05:42.791Z,24.50
2017-08-24T07:06:42.799Z,24.45
2017-08-24T07:07:42.810Z,24.35
2017-08-24T07:08:42.920Z,24.13
2017-08-24T07:09:42.829Z,23.84
2017-08-24T07:10:42.842Z,23.36
2017-08-24T07:11:42.855Z,23.12
2017-08-24T07:12:42.865Z,23.00
2017-08-24T07:13:42.875Z,22.97
2017-08-24T07:14:42.988Z,22.83
2017-08-24T07:15:43.001Z,22.80
2017-08-24T07:16:42.914Z,22.88
2017-08-24T07:17:42.926Z,22.83
2017-08-24T07:18:42.937Z,22.72
2017-08-24T07:19:42.953Z,22.62
2017-08-24T07:20:43.065Z,22.75
2017-08-24T07:21:42.976Z,22.72
2017-08-24T07:22:42.991Z,22.54
2017-08-24T07:23:43.003Z,22.64
2017-08-24T07:24:43.017Z,22.64
2017-08-24T07:25:43.027Z,22.67
2017-08-24T07:26:43.145Z,22.52
2017-08-24T07:27:43.054Z,22.58
2017-08-24T07:28:43.064Z,22.39
2017-08-24T07:29:43.076Z,22.20
2017-08-24T07:30:43.188Z,21.94
2017-08-24T07:31:43.098Z,21.91
2017-08-24T07:32:43.212Z,22.06
2017-08-24T07:33:43.120Z,22.06
2017-08-24T07:34:43.130Z,22.15
2017-08-24T07:35:43.141Z,22.17
2017-08-24T07:36:43.151Z,22.18
2017-08-24T07:37:43.161Z,22.20
2017-08-24T07:38:43.269Z,22.22
2017-08-24T07:39:43.177Z,22.31
2017-08-24T07:40:43.188Z,22.45
2017-08-24T07:41:43.196Z,22.58
2017-08-24T07:42:43.203Z,22.79
2017-08-24T07:43:43.211Z,22.85
2017-08-24T07:44:43.317Z,22.95
2017-08-24T07:45:43.223Z,22.98
2017-08-24T07:46:43.231Z,23.07
2017-08-24T07:47:43.238Z,22.95
2017-08-24T07:48:43.246Z,22.98
2017-08-24T07:49:43.248Z,22.92
2017-08-24T07:50:43.355Z,22.91
2017-08-24T07:51:43.263Z,22.90
2017-08-24T07:52:43.267Z,22.85
2017-08-24T07:53:43.270Z,22.95
2017-08-24T07:54:43.278Z,22.95
2017-08-24T07:55:43.290Z,23.05
2017-08-24T07:56:43.389Z,23.02
2017-08-24T07:57:43.291Z,23.13
2017-08-24T07:58:43.296Z,23.38
2017-08-24T07:59:43.299Z,23.47
2017-08-24T08:00:43.303Z,23.50
2017-08-24T08:01:43.307Z,23.50
2017-08-24T08:02:43.412Z,23.43
2017-08-24T08:03:43.315Z,23.42
2017-08-24T08:04:43.321Z,23.39
2017-08-24T08:05:43.322Z,23.40
2017-08-24T08:06:43.330Z,23.42
2017-08-24T08:07:43.330Z,23.48
2017-08-24T08:08:43.433Z,23.33
2017-08-24T08:09:43.335Z,23.25
2017-08-24T08:10:43.338Z,23.16
2017-08-24T08:11:43.444Z,23.04
2017-08-24T08:12:43.349Z,22.92
2017-08-24T08:13:43.349Z,22.85
2017-08-24T08:14:43.452Z,22.92
2017-08-24T08:15:43.359Z,22.95
2017-08-24T08:16:43.355Z,22.90
2017-08-24T08:17:43.358Z,22.67
2017-08-24T08:18:43.360Z,22.75
2017-08-24T08:19:43.363Z,22.76
2017-08-24T08:20:43.467Z,22.75
2017-08-24T08:21:43.467Z,22.86
2017-08-24T08:22:43.368Z,22.88
2017-08-24T08:23:43.373Z,22.98
2017-08-24T08:24:43.371Z,23.09
2017-08-24T08:25:43.373Z,23.16
2017-08-24T08:26:43.409Z,23.20
2017-08-24T08:27:43.476Z,23.36
2017-08-24T08:28:43.379Z,23.50
2017-08-24T08:29:43.379Z,23.54
2017-08-24T08:30:43.485Z,23.48
2017-08-24T08:31:43.382Z,23.35
2017-08-24T08:32:43.384Z,23.36
2017-08-24T08:33:43.485Z,23.38
2017-08-24T08:34:43.387Z,23.23
2017-08-24T08:35:43.389Z,23.20
2017-08-24T08:36:43.392Z,23.13
2017-08-24T08:37:43.394Z,23.09
2017-08-24T08:38:43.393Z,22.98
2017-08-24T08:39:43.497Z,22.94
2017-08-24T08:40:43.396Z,23.00
2017-08-24T08:41:43.399Z,22.92
2017-08-24T08:42:43.398Z,22.76
2017-08-24T08:43:43.401Z,22.79
2017-08-24T08:44:43.435Z,22.85
2017-08-24T08:45:43.501Z,22.88
2017-08-24T08:46:43.403Z,22.95
2017-08-24T08:47:43.404Z,22.97
2017-08-24T08:48:43.412Z,23.05
2017-08-24T08:49:43.405Z,23.07
2017-08-24T08:50:43.405Z,23.10
2017-08-24T08:51:43.509Z,23.09
2017-08-24T08:52:43.510Z,23.02
2017-08-24T08:53:43.408Z,23.04
2017-08-24T08:54:43.409Z,23.15
2017-08-24T08:55:43.411Z,23.12
2017-08-24T08:56:43.412Z,23.05
2017-08-24T08:57:43.514Z,23.23
2017-08-24T08:58:43.515Z,23.17
2017-08-24T08:59:43.415Z,23.05
2017-08-24T09:00:43.415Z,23.19
2017-08-24T09:01:43.415Z,23.27
2017-08-24T09:02:43.420Z,23.28
2017-08-24T09:03:43.520Z,23.33
2017-08-24T09:04:43.422Z,23.25
2017-08-24T09:05:43.418Z,23.15
2017-08-24T09:06:43.418Z,23.22
2017-08-24T09:07:43.419Z,23.28
2017-08-24T09:08:43.422Z,23.42
2017-08-24T09:09:43.522Z,23.46
2017-08-24T09:10:43.424Z,23.48
2017-08-24T09:11:43.423Z,23.66
2017-08-24T09:12:43.425Z,23.84
2017-08-24T09:13:43.424Z,23.94
2017-08-24T09:14:43.425Z,23.97
2017-08-24T09:15:43.525Z,24.06
2017-08-24T09:16:43.427Z,24.13
2017-08-24T09:17:43.430Z,24.28
2017-08-24T09:18:43.429Z,24.27
2017-08-24T09:19:43.427Z,24.09
2017-08-24T09:20:43.431Z,23.94
2017-08-24T09:21:43.529Z,24.02
2017-08-24T09:22:43.431Z,23.95
2017-08-24T09:23:43.438Z,23.95
2017-08-24T09:24:43.432Z,24.02
2017-08-24T09:25:43.434Z,24.06
2017-08-24T09:26:43.434Z,24.24
2017-08-24T09:27:43.537Z,24.34
2017-08-24T09:28:43.436Z,24.35
2017-08-24T09:29:43.438Z,24.40
2017-08-24T09:30:43.437Z,24.37
2017-08-24T09:31:43.441Z,24.28
2017-08-24T09:32:43.441Z,24.30
2017-08-24T09:33:43.543Z,24.28
2017-08-24T09:34:43.445Z,24.42
2017-08-24T09:35:43.443Z,24.35
2017-08-24T09:36:43.445Z,24.35
2017-08-24T09:37:43.447Z,24.34
2017-08-24T09:38:43.449Z,24.25
2017-08-24T09:39:43.548Z,24.22
2017-08-24T09:40:43.448Z,24.16
2017-08-24T09:41:43.449Z,24.18
2017-08-24T09:42:43.450Z,24.27
2017-08-24T09:43:43.454Z,24.35
2017-08-24T09:44:43.456Z,24.42
2017-08-24T09:45:43.554Z,24.42
2017-08-24T09:46:43.455Z,24.34
2017-08-24T09:47:43.457Z,24.35
2017-08-24T09:48:43.456Z,24.39
2017-08-24T09:49:43.458Z,24.45
2017-08-24T09:50:43.459Z,24.42
2017-08-24T09:51:43.563Z,24.47
2017-08-24T09:52:43.464Z,24.35
2017-08-24T09:53:43.463Z,24.28
2017-08-24T09:54:43.463Z,24.18
2017-08-24T09:55:43.467Z,24.21
2017-08-24T09:56:43.466Z,24.35
2017-08-24T09:57:43.566Z,24.50
2017-08-24T09:58:43.468Z,24.58
2017-08-24T09:59:43.468Z,24.81
2017-08-24T10:00:43.472Z,25.03
2017-08-24T10:01:43.473Z,25.45
2017-08-24T10:02:43.474Z,25.72
2017-08-24T10:03:43.575Z,25.85
2017-08-24T10:04:43.474Z,25.95
2017-08-24T10:05:43.479Z,26.20
2017-08-24T10:06:43.477Z,26.25
2017-08-24T10:07:43.479Z,26.44
2017-08-24T10:08:43.481Z,26.44
2017-08-24T10:09:43.584Z,26.21
2017-08-24T10:10:43.485Z,25.90
2017-08-24T10:11:43.484Z,25.75
2017-08-24T10:12:43.489Z,25.76
2017-08-24T10:13:43.497Z,25.73
2017-08-24T10:14:43.498Z,25.67
2017-08-24T10:15:43.592Z,25.61
2017-08-24T10:16:43.493Z,25.50
2017-08-24T10:17:43.498Z,25.32
2017-08-24T10:18:43.498Z,25.30
2017-08-24T10:19:43.498Z,25.32
2017-08-24T10:20:43.502Z,25.21
2017-08-24T10:21:43.601Z,25.13
2017-08-24T10:22:43.505Z,24.99
2017-08-24T10:23:43.507Z,24.95
2017-08-24T10:24:43.508Z,24.91
2017-08-24T10:25:43.508Z,24.91
2017-08-24T10:26:43.508Z,24.93
2017-08-24T10:27:43.614Z,25.17
2017-08-24T10:28:43.513Z,25.46
2017-08-24T10:29:43.521Z,25.52
2017-08-24T10:30:43.517Z,25.62
2017-08-24T10:31:43.550Z,25.67
2017-08-24T10:32:43.521Z,25.88
2017-08-24T10:33:43.624Z,26.01
2017-08-24T10:34:43.521Z,26.09
2017-08-24T10:35:43.523Z,25.99
2017-08-24T10:36:43.525Z,25.91
2017-08-24T10:37:43.525Z,25.75
2017-08-24T10:38:43.528Z,25.70
2017-08-24T10:39:43.832Z,25.75
2017-08-24T10:40:43.534Z,25.60
2017-08-24T10:41:43.533Z,25.64
2017-08-24T10:42:43.535Z,25.73
2017-08-24T10:43:43.536Z,25.77
2017-08-24T10:44:43.541Z,25.83
2017-08-24T10:45:43.642Z,25.82
2017-08-24T10:46:43.541Z,25.76
2017-08-24T10:47:43.544Z,25.87
2017-08-24T10:48:43.546Z,25.75
2017-08-24T10:49:43.546Z,25.91
2017-08-24T10:50:43.548Z,25.92
2017-08-24T10:51:43.652Z,25.97
2017-08-24T10:52:43.558Z,25.97
2017-08-24T10:53:43.554Z,25.94
2017-08-24T10:54:43.561Z,26.07
2017-08-24T10:55:43.560Z,26.23
2017-08-24T10:56:43.560Z,26.36
2017-08-24T10:57:43.661Z,26.51
2017-08-24T10:58:43.563Z,26.65
2017-08-24T10:59:43.567Z,26.57
2017-08-24T11:00:43.569Z,26.57
2017-08-24T11:01:43.571Z,26.67
2017-08-24T11:02:43.571Z,26.85
2017-08-24T11:03:43.826Z,26.81
2017-08-24T11:04:43.576Z,27.06
2017-08-24T11:05:43.579Z,27.27
2017-08-24T11:06:43.581Z,27.37
2017-08-24T11:07:43.584Z,27.51
2017-08-24T11:08:43.585Z,27.47
2017-08-24T11:09:43.688Z,27.43
2017-08-24T11:10:43.595Z,27.31
2017-08-24T11:11:43.594Z,27.34
2017-08-24T11:12:43.631Z,27.46
2017-08-24T11:13:43.598Z,27.51
2017-08-24T11:14:43.599Z,27.67
2017-08-24T11:15:43.702Z,27.72
2017-08-24T11:16:43.608Z,27.78
2017-08-24T11:17:43.609Z,27.94
2017-08-24T11:18:43.612Z,28.02
2017-08-24T11:19:43.615Z,28.03
2017-08-24T11:20:43.616Z,28.14
2017-08-24T11:21:43.718Z,28.15
2017-08-24T11:22:43.621Z,28.12
2017-08-24T11:23:43.640Z,28.15
2017-08-24T11:24:43.629Z,28.15
2017-08-24T11:25:43.629Z,28.17
2017-08-24T11:26:43.634Z,28.09
2017-08-24T11:27:43.737Z,28.12
2017-08-24T11:28:43.642Z,28.14
2017-08-24T11:29:43.640Z,28.19
2017-08-24T11:30:43.646Z,28.07
2017-08-24T11:31:43.688Z,27.77
2017-08-24T11:32:43.651Z,27.50
2017-08-24T11:33:43.754Z,27.10
2017-08-24T11:34:43.656Z,27.03
2017-08-24T11:35:43.659Z,26.65
2017-08-24T11:36:43.661Z,26.40
2017-08-24T11:37:43.665Z,26.25
2017-08-24T11:38:43.668Z,26.18
2017-08-24T11:39:43.969Z,25.99
2017-08-24T11:40:43.672Z,25.95
2017-08-24T11:41:43.673Z,26.06
2017-08-24T11:42:43.679Z,26.13
2017-08-24T11:43:43.681Z,26.15
2017-08-24T11:44:43.682Z,26.06
2017-08-24T11:45:43.801Z,26.15
2017-08-24T11:46:43.686Z,26.10
2017-08-24T11:47:43.689Z,26.44
2017-08-24T11:48:43.696Z,26.69
2017-08-24T11:49:43.695Z,26.92
2017-08-24T11:50:43.697Z,27.18
2017-08-24T11:51:43.799Z,27.44
2017-08-24T11:52:43.702Z,27.62
2017-08-24T11:53:43.701Z,27.39
2017-08-24T11:54:43.704Z,27.25
2017-08-24T11:55:43.709Z,27.14
2017-08-24T11:56:43.715Z,27.02
2017-08-24T11:57:43.813Z,26.91
2017-08-24T11:58:43.715Z,26.88
2017-08-24T11:59:43.724Z,26.75
2017-08-24T12:00:43.720Z,26.72
2017-08-24T12:01:43.722Z,26.72
2017-08-24T12:02:43.732Z,26.60
2017-08-24T12:03:43.828Z,26.70
2017-08-24T12:04:43.758Z,26.82
2017-08-24T12:05:43.732Z,27.02
2017-08-24T12:06:43.734Z,27.14
2017-08-24T12:07:43.737Z,27.27
2017-08-24T12:08:43.740Z,27.28
2017-08-24T12:09:44.043Z,27.32
2017-08-24T12:10:43.748Z,27.49
2017-08-24T12:11:43.749Z,27.66
2017-08-24T12:12:43.750Z,27.72
2017-08-24T12:13:43.754Z,27.62
2017-08-24T12:14:43.758Z,27.49
2017-08-24T12:15:43.858Z,27.65
2017-08-24T12:16:43.760Z,27.63
2017-08-24T12:17:43.763Z,27.65
2017-08-24T12:18:43.765Z,27.66
2017-08-24T12:19:43.768Z,27.55
2017-08-24T12:20:43.771Z,27.49
2017-08-24T12:21:43.873Z,27.66
2017-08-24T12:22:43.776Z,27.77
2017-08-24T12:23:43.779Z,27.79
2017-08-24T12:24:43.784Z,27.88
2017-08-24T12:25:43.784Z,28.09
2017-08-24T12:26:43.786Z,28.17
2017-08-24T12:27:43.892Z,28.15
2017-08-24T12:28:43.794Z,28.14
2017-08-24T12:29:43.794Z,28.11
2017-08-24T12:30:43.798Z,28.17
2017-08-24T12:31:43.803Z,28.25
2017-08-24T12:32:43.805Z,28.37
2017-08-24T12:33:43.907Z,28.49
2017-08-24T12:34:43.809Z,28.55
2017-08-24T12:35:43.813Z,28.61
2017-08-24T12:36:43.818Z,28.78
2017-08-24T12:37:43.820Z,28.86
2017-08-24T12:38:43.821Z,28.93
2017-08-24T12:39:43.925Z,28.98
2017-08-24T12:40:43.830Z,29.05
2017-08-24T12:41:43.833Z,29.02
2017-08-24T12:42:43.837Z,29.12
2017-08-24T12:43:43.844Z,28.95
2017-08-24T12:44:43.842Z,28.76
2017-08-24T12:45:43.946Z,28.61
2017-08-24T12:46:43.850Z,28.30
2017-08-24T12:47:43.853Z,28.15
2017-08-24T12:48:43.857Z,27.97
2017-08-24T12:49:43.858Z,28.07
2017-08-24T12:50:43.864Z,28.06
2017-08-24T12:51:43.964Z,28.09
2017-08-24T12:52:43.867Z,28.25
2017-08-24T12:53:43.872Z,28.37
2017-08-24T12:54:43.876Z,28.43
2017-08-24T12:55:43.879Z,28.59
2017-08-24T12:56:43.880Z,28.55
2017-08-24T12:57:43.984Z,28.70
2017-08-24T12:58:43.888Z,28.77
2017-08-24T12:59:43.892Z,28.85
2017-08-24T13:00:43.895Z,29.00
2017-08-24T13:01:43.900Z,28.96
2017-08-24T13:02:43.902Z,28.85
2017-08-24T13:03:44.007Z,28.76
2017-08-24T13:04:43.909Z,28.68
2017-08-24T13:05:43.909Z,28.76
2017-08-24T13:06:43.915Z,28.74
2017-08-24T13:07:43.920Z,28.71
2017-08-24T13:08:43.921Z,28.62
2017-08-24T13:09:44.025Z,28.44
2017-08-24T13:10:43.929Z,28.31
2017-08-24T13:11:43.933Z,28.09
2017-08-24T13:12:43.935Z,27.94
2017-08-24T13:13:43.938Z,27.90
2017-08-24T13:14:43.940Z,27.90
2017-08-24T13:15:44.058Z,27.79
2017-08-24T13:16:43.949Z,27.67
2017-08-24T13:17:43.952Z,27.79
2017-08-24T13:18:43.954Z,27.90
2017-08-24T13:19:43.957Z,27.94
2017-08-24T13:20:43.962Z,28.11
2017-08-24T13:21:44.063Z,28.03
2017-08-24T13:22:43.968Z,27.87
2017-08-24T13:23:43.970Z,27.90
2017-08-24T13:24:43.975Z,27.69
2017-08-24T13:25:43.978Z,27.67
2017-08-24T13:26:43.985Z,27.77
2017-08-24T13:27:44.084Z,27.78
2017-08-24T13:28:43.988Z,27.94
2017-08-24T13:29:43.989Z,28.03
2017-08-24T13:30:43.991Z,28.07
2017-08-24T13:31:43.995Z,28.17
2017-08-24T13:32:44.000Z,28.21
2017-08-24T13:33:44.249Z,28.29
2017-08-24T13:34:44.002Z,28.30
2017-08-24T13:35:44.007Z,28.34
2017-08-24T13:36:44.018Z,28.36
2017-08-24T13:37:44.012Z,28.29
2017-08-24T13:38:44.015Z,28.34
2017-08-24T13:39:44.274Z,28.22
2017-08-24T13:40:44.021Z,28.17
2017-08-24T13:41:44.025Z,28.21
2017-08-24T13:42:44.027Z,28.07
2017-08-24T13:43:44.029Z,28.22
2017-08-24T13:44:44.035Z,28.18
2017-08-24T13:45:44.137Z,28.09
2017-08-24T13:46:44.040Z,28.15
2017-08-24T13:47:44.042Z,28.09
2017-08-24T13:48:44.046Z,28.11
2017-08-24T13:49:44.048Z,28.00
2017-08-24T13:50:44.049Z,28.02
2017-08-24T13:51:44.156Z,28.02
2017-08-24T13:52:44.058Z,27.96
2017-08-24T13:53:44.062Z,27.90
2017-08-24T13:54:44.063Z,27.94
2017-08-24T13:55:44.066Z,27.87
2017-08-24T13:56:44.069Z,27.79
2017-08-24T13:57:44.173Z,27.84
2017-08-24T13:58:44.075Z,27.70
2017-08-24T13:59:44.079Z,27.79
2017-08-24T14:00:44.081Z,27.77
2017-08-24T14:01:44.083Z,27.77
2017-08-24T14:02:44.089Z,27.82
2017-08-24T14:03:44.190Z,27.84
2017-08-24T14:04:44.092Z,27.78
2017-08-24T14:05:44.095Z,27.82
2017-08-24T14:06:44.097Z,27.90
2017-08-24T14:07:44.103Z,27.90
2017-08-24T14:08:44.105Z,27.88
2017-08-24T14:09:44.207Z,27.87
2017-08-24T14:10:44.109Z,27.96
2017-08-24T14:11:44.113Z,27.88
2017-08-24T14:12:44.115Z,27.77
2017-08-24T14:13:44.117Z,27.74
2017-08-24T14:14:44.122Z,27.63
2017-08-24T14:15:44.224Z,27.62
2017-08-24T14:16:44.129Z,27.62
2017-08-24T14:17:44.128Z,27.49
2017-08-24T14:18:44.131Z,27.41
2017-08-24T14:19:44.133Z,27.27
2017-08-24T14:20:44.138Z,27.21
2017-08-24T14:21:44.240Z,27.21
2017-08-24T14:22:44.143Z,27.17
2017-08-24T14:23:44.145Z,27.00
2017-08-24T14:24:44.147Z,27.04
2017-08-24T14:25:44.157Z,27.09
2017-08-24T14:26:44.150Z,27.09
2017-08-24T14:27:44.255Z,27.06
2017-08-24T14:28:44.157Z,26.97
2017-08-24T14:29:44.158Z,26.88
2017-08-24T14:30:44.162Z,26.95
2017-08-24T14:31:44.263Z,26.94
2017-08-24T14:32:44.169Z,26.94
2017-08-24T14:33:44.266Z,26.91
2017-08-24T14:34:44.170Z,27.03
2017-08-24T14:35:44.172Z,27.07